createdAt,value
2023-05-01T00:00:29.650Z,13.70
2023-05-01T00:02:59.807Z,13.70
2023-05-01T00:05:28.157Z,13.80
2023-05-01T00:07:58.273Z,13.80
2023-05-01T00:10:25.700Z,13.80
2023-05-01T00:12:53.308Z,13.70
2023-05-01T00:15:20.745Z,13.70
2023-05-01T00:17:49.562Z,13.70
2023-05-01T00:20:16.629Z,13.70
2023-05-01T00:22:43.742Z,13.70
2023-05-01T00:25:11.563Z,13.70
2023-05-01T00:27:38.927Z,13.70
2023-05-01T00:30:07.714Z,13.70
2023-05-01T00:32:34.844Z,13.70
2023-05-01T00:35:02.488Z,13.70
2023-05-01T00:37:29.734Z,13.70
2023-05-01T00:40:00.084Z,13.60
2023-05-01T00:42:27.301Z,13.60
2023-05-01T00:44:57.108Z,13.50
2023-05-01T00:47:24.218Z,13.50
2023-05-01T00:49:53.125Z,13.50
2023-05-01T00:52:20.507Z,13.50
2023-05-01T00:54:53.015Z,13.50
2023-05-01T00:57:24.555Z,13.40
2023-05-01T00:59:52.208Z,13.40
2023-05-01T01:02:19.935Z,13.50
2023-05-01T01:04:48.098Z,13.40
2023-05-01T01:07:22.466Z,13.40
2023-05-01T01:10:05.817Z,13.40
2023-05-01T01:12:55.148Z,13.40
2023-05-01T01:15:22.813Z,13.40
2023-05-01T01:18:02.581Z,13.30
2023-05-01T01:20:46.813Z,13.30
2023-05-01T01:23:17.904Z,13.20
2023-05-01T01:25:48.522Z,13.10
2023-05-01T01:28:22.655Z,13.10
2023-05-01T01:31:08.525Z,13.00
2023-05-01T01:33:57.095Z,13.00
2023-05-01T01:36:35.614Z,12.90
2023-05-01T01:39:18.251Z,12.90
2023-05-01T01:41:51.249Z,12.80
2023-05-01T01:44:36.973Z,12.70
2023-05-01T01:47:07.469Z,12.70
2023-05-01T01:49:37.219Z,12.60
2023-05-01T01:52:09.035Z,12.60
2023-05-01T01:54:38.813Z,12.60
2023-05-01T01:57:07.805Z,12.50
2023-05-01T01:59:37.633Z,12.40
2023-05-01T02:02:05.660Z,12.40
2023-05-01T02:04:35.096Z,12.40
2023-05-01T02:07:03.073Z,12.30
2023-05-01T02:09:31.271Z,12.20
2023-05-01T02:11:59.597Z,12.30
2023-05-01T02:14:30.318Z,12.20
2023-05-01T02:16:59.443Z,12.30
2023-05-01T02:19:27.307Z,12.30
2023-05-01T02:21:59.746Z,12.20
2023-05-01T02:24:28.986Z,12.20
2023-05-01T02:27:03.756Z,12.20
2023-05-01T02:29:31.264Z,12.20
2023-05-01T02:31:59.221Z,12.20
2023-05-01T02:34:30.415Z,12.20
2023-05-01T02:36:57.670Z,12.10
2023-05-01T02:39:25.800Z,12.10
2023-05-01T02:41:54.023Z,12.10
2023-05-01T02:44:22.843Z,12.00
2023-05-01T02:46:50.776Z,12.00
2023-05-01T02:49:19.303Z,12.00
2023-05-01T02:51:48.996Z,12.00
2023-05-01T02:54:18.113Z,12.00
2023-05-01T02:56:47.731Z,12.00
2023-05-01T02:59:19.443Z,11.90
2023-05-01T03:01:46.895Z,11.90
2023-05-01T03:04:14.316Z,11.90
2023-05-01T03:06:42.064Z,11.90
2023-05-01T03:09:09.192Z,11.90
2023-05-01T03:11:38.425Z,11.90
2023-05-01T03:14:05.768Z,11.90
2023-05-01T03:16:33.012Z,11.90
2023-05-01T03:19:00.550Z,11.80
2023-05-01T03:21:32.289Z,11.80
2023-05-01T03:23:59.366Z,11.80
2023-05-01T03:26:28.864Z,11.80
2023-05-01T03:28:56.268Z,11.80
2023-05-01T03:31:31.076Z,11.80
2023-05-01T03:34:01.167Z,11.70
2023-05-01T03:36:30.205Z,11.70
2023-05-01T03:39:00.252Z,11.70
2023-05-01T03:41:27.838Z,11.70
2023-05-01T03:43:55.901Z,11.70
2023-05-01T03:46:22.919Z,11.70
2023-05-01T03:48:50.945Z,11.70
2023-05-01T03:51:18.558Z,11.70
2023-05-01T03:53:46.862Z,11.70
2023-05-01T03:56:13.872Z,11.70
2023-05-01T03:58:41.454Z,11.70
2023-05-01T04:01:09.885Z,11.70
2023-05-01T04:03:38.002Z,11.70
2023-05-01T04:06:05.355Z,11.70
2023-05-01T04:08:32.780Z,11.70
2023-05-01T04:11:00.883Z,11.70
2023-05-01T04:13:31.643Z,11.70
2023-05-01T04:16:00.386Z,11.70
2023-05-01T04:18:27.655Z,11.70
2023-05-01T04:20:55.787Z,11.70
2023-05-01T04:23:24.730Z,11.70
2023-05-01T04:25:56.405Z,11.70
2023-05-01T04:28:23.516Z,11.60
2023-05-01T04:30:51.564Z,11.70
2023-05-01T04:33:18.835Z,11.70
2023-05-01T04:35:46.013Z,11.70
2023-05-01T04:38:13.336Z,11.80
2023-05-01T04:40:40.527Z,11.80
2023-05-01T04:43:07.752Z,11.80
2023-05-01T04:45:34.852Z,11.80
2023-05-01T04:48:02.878Z,11.80
2023-05-01T04:50:32.316Z,11.80
2023-05-01T04:52:59.594Z,11.80
2023-05-01T04:55:31.604Z,11.80
2023-05-01T04:57:58.769Z,11.80
2023-05-01T05:00:29.130Z,11.80
2023-05-01T05:02:56.483Z,11.80
2023-05-01T05:05:23.790Z,11.80
2023-05-01T05:07:54.447Z,11.80
2023-05-01T05:10:22.004Z,11.80
2023-05-01T05:12:49.211Z,11.80
2023-05-01T05:15:16.690Z,11.80
2023-05-01T05:17:44.146Z,11.80
2023-05-01T05:20:13.581Z,11.80
2023-05-01T05:22:40.593Z,11.80
2023-05-01T05:25:08.089Z,11.80
2023-05-01T05:27:38.525Z,11.80
2023-05-01T05:30:06.316Z,11.80
2023-05-01T05:32:34.953Z,11.80
2023-05-01T05:35:02.412Z,11.80
2023-05-01T05:37:29.999Z,11.80
2023-05-01T05:39:58.048Z,11.80
2023-05-01T05:42:25.242Z,11.90
2023-05-01T05:44:52.718Z,11.90
2023-05-01T05:47:20.006Z,11.90
2023-05-01T05:49:47.318Z,11.90
2023-05-01T05:52:15.142Z,12.00
2023-05-01T05:54:42.420Z,12.00
2023-05-01T05:57:10.111Z,12.00
2023-05-01T05:59:38.675Z,12.00
2023-05-01T06:02:06.333Z,12.00
2023-05-01T06:04:33.829Z,12.10
2023-05-01T06:07:01.868Z,12.20
2023-05-01T06:09:29.178Z,12.20
2023-05-01T06:11:56.869Z,12.20
2023-05-01T06:14:24.260Z,12.30
2023-05-01T06:16:51.770Z,12.30
2023-05-01T06:19:19.933Z,12.40
2023-05-01T06:21:48.531Z,12.40
2023-05-01T06:24:19.282Z,12.50
2023-05-01T06:26:49.463Z,12.50
2023-05-01T06:29:16.987Z,12.60
2023-05-01T06:31:44.757Z,12.70
2023-05-01T06:34:12.591Z,12.70
2023-05-01T06:36:39.944Z,12.80
2023-05-01T06:39:07.876Z,12.90
2023-05-01T06:41:36.496Z,12.90
2023-05-01T06:44:03.790Z,13.00
2023-05-01T06:46:31.275Z,13.00
2023-05-01T06:49:00.392Z,13.10
2023-05-01T06:51:31.736Z,13.20
2023-05-01T06:53:59.555Z,13.20
2023-05-01T06:56:30.841Z,13.30
2023-05-01T06:59:01.069Z,13.40
2023-05-01T07:01:32.652Z,13.40
2023-05-01T07:04:01.032Z,13.40
2023-05-01T07:06:28.875Z,13.50
2023-05-01T07:08:56.567Z,13.60
2023-05-01T07:11:24.031Z,13.70
2023-05-01T07:13:51.826Z,13.70
2023-05-01T07:16:19.285Z,13.70
2023-05-01T07:18:50.144Z,13.70
2023-05-01T07:21:17.277Z,13.70
2023-05-01T07:24:04.567Z,13.70
2023-05-01T07:26:41.330Z,13.80
2023-05-01T07:29:16.713Z,13.90
2023-05-01T07:31:52.417Z,13.90
2023-05-01T07:34:32.918Z,13.90
2023-05-01T07:37:19.540Z,13.90
2023-05-01T07:39:57.853Z,14.00
2023-05-01T07:42:34.769Z,14.00
2023-05-01T07:45:04.204Z,14.10
2023-05-01T07:47:31.965Z,14.30
2023-05-01T07:50:00.273Z,14.30
2023-05-01T07:52:28.115Z,14.50
2023-05-01T07:54:57.484Z,14.60
2023-05-01T07:57:27.754Z,14.70
2023-05-01T07:59:58.570Z,14.80
2023-05-01T08:02:26.472Z,14.90
2023-05-01T08:04:53.719Z,15.00
2023-05-01T08:07:25.544Z,15.10
2023-05-01T08:09:53.750Z,15.20
2023-05-01T08:12:21.506Z,15.30
2023-05-01T08:14:49.008Z,15.30
2023-05-01T08:17:16.257Z,15.40
2023-05-01T08:19:43.408Z,15.40
2023-05-01T08:22:10.665Z,15.40
2023-05-01T08:24:38.264Z,15.40
2023-05-01T08:27:05.822Z,15.40
2023-05-01T08:29:33.041Z,15.40
2023-05-01T08:32:00.558Z,15.50
2023-05-01T08:34:28.302Z,15.50
2023-05-01T08:36:57.998Z,15.70
2023-05-01T08:39:34.420Z,15.80
2023-05-01T08:42:04.886Z,15.90
2023-05-01T08:44:32.887Z,16.00
2023-05-01T08:47:26.569Z,16.20
2023-05-01T08:49:54.925Z,16.30
2023-05-01T08:52:23.519Z,16.50
2023-05-01T08:54:54.962Z,16.70
2023-05-01T08:57:29.804Z,16.80
2023-05-01T09:00:01.182Z,16.90
2023-05-01T09:02:29.040Z,17.00
2023-05-01T09:04:56.397Z,17.10
2023-05-01T09:07:24.152Z,17.20
2023-05-01T09:09:51.322Z,17.30
2023-05-01T09:12:19.981Z,17.40
2023-05-01T09:14:47.298Z,17.50
2023-05-01T09:17:15.522Z,17.60
2023-05-01T09:19:43.869Z,17.80
2023-05-01T09:22:10.978Z,17.90
2023-05-01T09:24:38.232Z,18.10
2023-05-01T09:27:06.504Z,18.30
2023-05-01T09:29:41.184Z,18.40
2023-05-01T09:32:16.464Z,18.50
2023-05-01T09:34:47.678Z,18.70
2023-05-01T09:37:27.504Z,18.80
2023-05-01T09:40:03.023Z,19.00
2023-05-01T09:42:30.700Z,19.20
2023-05-01T09:44:58.259Z,19.40
2023-05-01T09:47:28.437Z,19.60
2023-05-01T09:50:00.802Z,19.70
2023-05-01T09:52:28.728Z,19.80
2023-05-01T09:55:15.441Z,20.00
2023-05-01T09:57:46.687Z,20.10
2023-05-01T10:00:15.660Z,20.20
2023-05-01T10:02:44.392Z,20.20
2023-05-01T10:05:12.293Z,20.20
2023-05-01T10:07:39.972Z,20.20
2023-05-01T10:10:23.130Z,20.20
2023-05-01T10:12:50.572Z,20.20
2023-05-01T10:15:26.171Z,20.20
2023-05-01T10:17:56.450Z,20.20
2023-05-01T10:20:23.984Z,20.10
2023-05-01T10:22:51.169Z,20.00
2023-05-01T10:25:18.894Z,19.90
2023-05-01T10:27:46.369Z,19.90
2023-05-01T10:30:13.448Z,19.90
2023-05-01T10:32:42.305Z,19.90
2023-05-01T10:35:15.342Z,19.90
2023-05-01T10:37:47.771Z,20.00
2023-05-01T10:40:50.750Z,20.10
2023-05-01T10:43:30.067Z,20.30
2023-05-01T10:46:09.684Z,20.50
2023-05-01T10:48:39.865Z,20.70
2023-05-01T10:51:23.814Z,21.00
2023-05-01T10:54:12.320Z,21.10
2023-05-01T10:56:40.098Z,21.10
2023-05-01T10:59:08.704Z,21.10
2023-05-01T11:01:37.204Z,21.20
2023-05-01T11:04:05.345Z,21.20
2023-05-01T11:06:32.889Z,21.20
2023-05-01T11:09:00.747Z,21.40
2023-05-01T11:11:28.631Z,21.60
2023-05-01T11:14:06.619Z,21.80
2023-05-01T11:16:40.385Z,22.00
2023-05-01T11:19:08.400Z,22.20
2023-05-01T11:21:39.422Z,22.30
2023-05-01T11:24:06.966Z,22.30
2023-05-01T11:26:38.722Z,22.30
2023-05-01T11:29:09.791Z,22.40
2023-05-01T11:31:37.255Z,22.40
2023-05-01T11:34:05.372Z,22.30
2023-05-01T11:36:48.961Z,22.20
2023-05-01T11:39:19.679Z,22.10
2023-05-01T11:41:48.015Z,22.00
2023-05-01T11:44:20.227Z,21.80
2023-05-01T11:46:59.402Z,21.80
2023-05-01T11:49:29.751Z,21.90
2023-05-01T11:52:00.576Z,22.10
2023-05-01T11:54:28.261Z,22.30
2023-05-01T11:57:01.539Z,22.50
2023-05-01T11:59:29.335Z,22.70
2023-05-01T12:01:57.238Z,22.80
2023-05-01T12:04:32.459Z,22.90
2023-05-01T12:07:00.185Z,22.90
2023-05-01T12:09:30.456Z,22.90
2023-05-01T12:12:02.457Z,22.90
2023-05-01T12:14:31.432Z,22.80
2023-05-01T12:16:58.916Z,22.70
2023-05-01T12:19:26.527Z,22.70
2023-05-01T12:22:07.194Z,22.60
2023-05-01T12:24:34.923Z,22.50
2023-05-01T12:27:04.234Z,22.40
2023-05-01T12:29:47.307Z,22.40
2023-05-01T12:32:15.048Z,22.30
2023-05-01T12:34:42.916Z,22.20
2023-05-01T12:37:11.210Z,22.10
2023-05-01T12:39:45.167Z,22.00
2023-05-01T12:42:13.930Z,21.90
2023-05-01T12:44:44.437Z,21.90
2023-05-01T12:47:12.512Z,22.00
2023-05-01T12:49:40.872Z,22.10
2023-05-01T12:52:09.628Z,22.30
2023-05-01T12:54:39.265Z,22.50
2023-05-01T12:57:16.897Z,22.70
2023-05-01T12:59:47.747Z,22.80
2023-05-01T13:02:17.358Z,23.00
2023-05-01T13:04:50.414Z,23.20
2023-05-01T13:07:18.686Z,23.30
2023-05-01T13:09:53.608Z,23.40
2023-05-01T13:12:22.623Z,23.40
2023-05-01T13:14:50.581Z,23.40
2023-05-01T13:17:23.948Z,23.50
2023-05-01T13:20:01.409Z,23.60
2023-05-01T13:22:35.581Z,23.70
2023-05-01T13:25:05.709Z,23.70
2023-05-01T13:27:33.194Z,23.80
2023-05-01T13:30:00.844Z,23.80
2023-05-01T13:32:28.726Z,23.90
2023-05-01T13:34:56.513Z,23.90
2023-05-01T13:37:28.891Z,23.80
2023-05-01T13:40:00.036Z,23.80
2023-05-01T13:42:35.201Z,23.60
2023-05-01T13:45:06.094Z,23.50
2023-05-01T13:47:38.355Z,23.40
2023-05-01T13:50:11.194Z,23.30
2023-05-01T13:52:43.674Z,23.20
2023-05-01T13:55:11.816Z,23.10
2023-05-01T13:57:46.024Z,23.00
2023-05-01T14:00:26.835Z,22.90
2023-05-01T14:02:54.830Z,22.70
2023-05-01T14:05:32.015Z,22.60
2023-05-01T14:07:59.666Z,22.50
2023-05-01T14:10:31.547Z,22.50
2023-05-01T14:13:01.188Z,22.50
2023-05-01T14:15:31.253Z,22.50
2023-05-01T14:18:01.323Z,22.50
2023-05-01T14:20:28.492Z,22.40
2023-05-01T14:22:57.224Z,22.40
2023-05-01T14:25:28.429Z,22.40
2023-05-01T14:27:57.553Z,22.40
2023-05-01T14:30:34.138Z,22.40
2023-05-01T14:33:05.540Z,22.40
2023-05-01T14:35:33.665Z,22.40
2023-05-01T14:38:09.006Z,22.30
2023-05-01T14:40:40.586Z,22.30
2023-05-01T14:43:09.490Z,22.20
2023-05-01T14:45:36.998Z,22.20
2023-05-01T14:48:04.848Z,22.10
2023-05-01T14:50:32.576Z,22.10
2023-05-01T14:53:00.393Z,22.00
2023-05-01T14:55:34.035Z,22.00
2023-05-01T14:58:02.294Z,21.90
2023-05-01T15:00:29.940Z,21.90
2023-05-01T15:03:00.497Z,21.90
2023-05-01T15:05:33.179Z,21.90
2023-05-01T15:08:07.977Z,21.80
2023-05-01T15:10:35.149Z,21.70
2023-05-01T15:13:02.287Z,21.60
2023-05-01T15:15:32.466Z,21.60
2023-05-01T15:18:01.125Z,21.60
2023-05-01T15:20:33.739Z,21.60
2023-05-01T15:23:01.021Z,21.50
2023-05-01T15:25:28.586Z,21.50
2023-05-01T15:28:00.968Z,21.40
2023-05-01T15:30:28.355Z,21.40
2023-05-01T15:32:58.642Z,21.30
2023-05-01T15:35:27.083Z,21.30
2023-05-01T15:37:58.057Z,21.20
2023-05-01T15:40:25.244Z,21.20
2023-05-01T15:42:54.056Z,21.10
2023-05-01T15:45:21.153Z,21.10
2023-05-01T15:47:48.853Z,21.10
2023-05-01T15:50:15.888Z,21.00
2023-05-01T15:52:44.079Z,21.00
2023-05-01T15:55:12.428Z,21.00
2023-05-01T15:57:40.232Z,21.00
2023-05-01T16:00:08.923Z,21.00
2023-05-01T16:02:36.546Z,20.90
2023-05-01T16:05:03.777Z,20.90
2023-05-01T16:07:31.320Z,20.80
2023-05-01T16:10:05.123Z,20.80
2023-05-01T16:12:32.423Z,20.80
2023-05-01T16:15:02.568Z,20.70
2023-05-01T16:17:32.039Z,20.70
2023-05-01T16:20:01.061Z,20.70
2023-05-01T16:22:29.065Z,20.60
2023-05-01T16:25:01.398Z,20.60
2023-05-01T16:27:28.677Z,20.50
2023-05-01T16:29:58.825Z,20.50
2023-05-01T16:32:28.931Z,20.50
2023-05-01T16:34:58.378Z,20.50
2023-05-01T16:37:27.317Z,20.40
2023-05-01T16:39:54.824Z,20.40
2023-05-01T16:42:24.119Z,20.30
2023-05-01T16:44:52.978Z,20.30
2023-05-01T16:47:20.643Z,20.30
2023-05-01T16:49:47.995Z,20.20
2023-05-01T16:52:19.131Z,20.20
2023-05-01T16:54:46.550Z,20.20
2023-05-01T16:57:13.660Z,20.10
2023-05-01T16:59:40.967Z,20.10
2023-05-01T17:02:10.206Z,20.10
2023-05-01T17:04:37.365Z,20.00
2023-05-01T17:07:12.792Z,20.00
2023-05-01T17:09:39.829Z,20.00
2023-05-01T17:12:07.707Z,19.90
2023-05-01T17:14:35.171Z,19.90
2023-05-01T17:17:02.601Z,19.90
2023-05-01T17:19:30.882Z,19.80
2023-05-01T17:21:58.695Z,19.80
2023-05-01T17:24:28.560Z,19.80
2023-05-01T17:26:56.416Z,19.70
2023-05-01T17:29:24.166Z,19.70
2023-05-01T17:31:51.747Z,19.70
2023-05-01T17:34:19.127Z,19.60
2023-05-01T17:36:46.671Z,19.60
2023-05-01T17:39:15.154Z,19.60
2023-05-01T17:41:42.152Z,19.60
2023-05-01T17:44:09.170Z,19.50
2023-05-01T17:46:39.155Z,19.50
2023-05-01T17:49:07.190Z,19.50
2023-05-01T17:51:34.386Z,19.40
2023-05-01T17:54:02.633Z,19.40
2023-05-01T17:56:30.122Z,19.30
2023-05-01T17:58:57.699Z,19.30
2023-05-01T18:01:26.650Z,19.20
2023-05-01T18:03:54.427Z,19.10
2023-05-01T18:06:22.009Z,19.00
2023-05-01T18:08:50.363Z,19.00
2023-05-01T18:11:17.776Z,18.90
2023-05-01T18:13:48.901Z,18.80
2023-05-01T18:16:17.159Z,18.80
2023-05-01T18:18:44.345Z,18.70
2023-05-01T18:21:12.514Z,18.70
2023-05-01T18:23:40.244Z,18.60
2023-05-01T18:26:10.845Z,18.50
2023-05-01T18:28:37.954Z,18.50
2023-05-01T18:31:05.604Z,18.40
2023-05-01T18:33:33.062Z,18.40
2023-05-01T18:36:00.657Z,18.30
2023-05-01T18:38:28.646Z,18.30
2023-05-01T18:40:58.910Z,18.30
2023-05-01T18:43:26.681Z,18.30
2023-05-01T18:45:54.093Z,18.30
2023-05-01T18:48:27.425Z,18.30
2023-05-01T18:51:07.254Z,18.30
2023-05-01T18:53:40.371Z,18.20
2023-05-01T18:56:11.308Z,18.20
2023-05-01T18:58:40.137Z,18.20
2023-05-01T19:01:08.843Z,18.10
2023-05-01T19:03:36.833Z,18.10
2023-05-01T19:06:04.358Z,18.10
2023-05-01T19:08:32.235Z,18.10
2023-05-01T19:11:00.500Z,18.10
2023-05-01T19:13:28.530Z,18.00
2023-05-01T19:15:58.326Z,18.00
2023-05-01T19:18:26.539Z,18.00
2023-05-01T19:20:55.138Z,18.00
2023-05-01T19:23:22.425Z,18.00
2023-05-01T19:25:50.257Z,17.90
2023-05-01T19:28:17.334Z,17.90
2023-05-01T19:30:44.399Z,17.90
2023-05-01T19:33:12.304Z,17.90
2023-05-01T19:35:39.842Z,17.80
2023-05-01T19:38:07.019Z,17.80
2023-05-01T19:40:34.624Z,17.80
2023-05-01T19:43:01.653Z,17.70
2023-05-01T19:45:29.451Z,17.70
2023-05-01T19:47:59.580Z,17.60
2023-05-01T19:50:27.154Z,17.60
2023-05-01T19:52:54.521Z,17.50
2023-05-01T19:55:21.946Z,17.50
2023-05-01T19:57:49.508Z,17.50
2023-05-01T20:00:17.364Z,17.40
2023-05-01T20:02:44.706Z,17.40
2023-05-01T20:05:14.635Z,17.40
2023-05-01T20:07:41.697Z,17.40
2023-05-01T20:10:10.573Z,17.40
2023-05-01T20:12:38.854Z,17.30
2023-05-01T20:15:06.992Z,17.30
2023-05-01T20:17:34.391Z,17.30
2023-05-01T20:20:01.772Z,17.30
2023-05-01T20:22:29.363Z,17.20
2023-05-01T20:24:58.470Z,17.20
2023-05-01T20:27:26.535Z,17.20
2023-05-01T20:29:53.997Z,17.20
2023-05-01T20:32:21.247Z,17.20
2023-05-01T20:34:48.509Z,17.20
2023-05-01T20:37:15.596Z,17.20
2023-05-01T20:39:43.105Z,17.20
2023-05-01T20:42:10.292Z,17.20
2023-05-01T20:44:37.930Z,17.20
2023-05-01T20:47:05.122Z,17.10
2023-05-01T20:49:32.376Z,17.10
2023-05-01T20:51:59.711Z,17.00
2023-05-01T20:54:32.547Z,17.00
2023-05-01T20:57:00.730Z,17.00
2023-05-01T20:59:27.997Z,16.90
2023-05-01T21:01:56.867Z,16.90
2023-05-01T21:04:24.136Z,16.80
2023-05-01T21:06:52.571Z,16.80
2023-05-01T21:09:20.038Z,16.80
2023-05-01T21:11:48.605Z,16.80
2023-05-01T21:14:16.479Z,16.70
2023-05-01T21:16:43.529Z,16.70
2023-05-01T21:19:12.251Z,16.70
2023-05-01T21:21:39.755Z,16.70
2023-05-01T21:24:08.024Z,16.60
2023-05-01T21:26:35.243Z,16.60
2023-05-01T21:29:03.352Z,16.60
2023-05-01T21:31:32.887Z,16.70
2023-05-01T21:34:02.752Z,16.70
2023-05-01T21:36:30.642Z,16.60
2023-05-01T21:38:58.478Z,16.70
2023-05-01T21:41:26.187Z,16.70
2023-05-01T21:43:53.330Z,16.60
2023-05-01T21:46:20.567Z,16.60
2023-05-01T21:48:54.703Z,16.60
2023-05-01T21:51:28.792Z,16.50
2023-05-01T21:53:58.248Z,16.50
2023-05-01T21:56:27.080Z,16.50
2023-05-01T21:58:59.963Z,16.40
2023-05-01T22:01:30.266Z,16.40
2023-05-01T22:03:57.716Z,16.30
2023-05-01T22:06:26.744Z,16.30
2023-05-01T22:08:53.971Z,16.30
2023-05-01T22:11:24.747Z,16.30
2023-05-01T22:13:51.798Z,16.20
2023-05-01T22:16:19.103Z,16.20
2023-05-01T22:18:49.793Z,16.20
2023-05-01T22:21:17.441Z,16.20
2023-05-01T22:23:44.472Z,16.20
2023-05-01T22:26:12.213Z,16.20
2023-05-01T22:28:39.747Z,16.10
2023-05-01T22:31:06.791Z,16.10
2023-05-01T22:33:33.916Z,16.10
2023-05-01T22:36:01.101Z,16.00
2023-05-01T22:38:28.066Z,15.90
2023-05-01T22:40:55.023Z,15.90
2023-05-01T22:43:22.249Z,15.90
2023-05-01T22:45:49.333Z,15.90
2023-05-01T22:48:16.681Z,15.80
2023-05-01T22:50:44.170Z,15.80
2023-05-01T22:53:11.629Z,15.90
2023-05-01T22:55:39.470Z,15.90
2023-05-01T22:58:07.238Z,15.90
2023-05-01T23:00:34.495Z,15.90
2023-05-01T23:03:02.055Z,16.00
2023-05-01T23:05:30.572Z,16.00
2023-05-01T23:07:58.156Z,16.00
2023-05-01T23:10:33.778Z,16.00
2023-05-01T23:13:02.536Z,15.90
2023-05-01T23:15:32.386Z,15.90
2023-05-01T23:18:00.035Z,15.90
2023-05-01T23:20:27.439Z,15.90
2023-05-01T23:22:54.478Z,15.90
2023-05-01T23:25:24.913Z,15.90
2023-05-01T23:27:52.665Z,15.90
2023-05-01T23:30:21.435Z,16.00
2023-05-01T23:32:49.231Z,16.00
2023-05-01T23:35:20.862Z,16.00
2023-05-01T23:37:48.053Z,16.00
2023-05-01T23:40:15.751Z,15.90
2023-05-01T23:42:43.339Z,16.00
2023-05-01T23:45:10.586Z,16.00
2023-05-01T23:47:39.070Z,16.00
2023-05-01T23:50:06.804Z,16.00
2023-05-01T23:52:33.731Z,16.00
2023-05-01T23:55:01.295Z,16.00
2023-05-01T23:57:28.867Z,16.00
2023-05-01T23:59:55.957Z,16.00
